createdAt,value
2022-09-03T00:01:05.276Z,67.91
2022-09-03T00:03:44.363Z,67.75
2022-09-03T00:06:20.805Z,67.94
2022-09-03T00:09:31.023Z,68.25
2022-09-03T00:12:16.617Z,68.46
2022-09-03T00:14:53.071Z,68.96
2022-09-03T00:17:25.597Z,69.25
2022-09-03T00:20:22.658Z,69.95
2022-09-03T00:22:54.244Z,70.89
2022-09-03T00:25:34.360Z,70.29
2022-09-03T00:28:04.950Z,70.88
2022-09-03T00:30:33.941Z,70.65
2022-09-03T00:33:10.889Z,70.93
2022-09-03T00:35:49.978Z,71.24
2022-09-03T00:38:16.930Z,71.76
2022-09-03T00:40:59.908Z,71.45
2022-09-03T00:43:38.866Z,72.05
2022-09-03T00:46:10.287Z,72.56
2022-09-03T00:48:56.116Z,72.58
2022-09-03T00:51:39.508Z,72.40
2022-09-03T00:54:30.663Z,72.91
2022-09-03T00:57:25.832Z,73.03
2022-09-03T00:59:57.667Z,72.66
2022-09-03T01:02:57.831Z,72.51
2022-09-03T01:05:31.995Z,72.39
2022-09-03T01:08:08.436Z,72.73
2022-09-03T01:10:57.114Z,73.10
2022-09-03T01:13:45.797Z,73.29
2022-09-03T01:16:15.497Z,73.93
2022-09-03T01:18:57.098Z,73.95
2022-09-03T01:21:43.859Z,73.97
2022-09-03T01:24:59.082Z,74.19
2022-09-03T01:27:44.851Z,74.45
2022-09-03T01:30:18.679Z,75.07
2022-09-03T01:33:27.235Z,75.02
2022-09-03T01:35:58.603Z,75.62
2022-09-03T01:39:02.119Z,74.91
2022-09-03T01:42:09.743Z,75.10
2022-09-03T01:45:07.857Z,74.89
2022-09-03T01:47:49.755Z,75.52
2022-09-03T01:50:41.264Z,75.46
2022-09-03T01:53:33.083Z,76.18
2022-09-03T01:56:18.023Z,76.33
2022-09-03T01:58:48.676Z,76.10
2022-09-03T02:01:27.031Z,76.08
2022-09-03T02:03:59.756Z,76.14
2022-09-03T02:06:32.336Z,76.65
2022-09-03T02:08:59.506Z,77.25
2022-09-03T02:11:26.746Z,76.63
2022-09-03T02:14:00.507Z,77.20
2022-09-03T02:16:33.256Z,77.49
2022-09-03T02:19:04.356Z,77.62
2022-09-03T02:21:37.432Z,77.58
2022-09-03T02:24:05.363Z,77.48
2022-09-03T02:26:32.281Z,77.78
2022-09-03T02:29:01.380Z,77.63
2022-09-03T02:31:29.081Z,78.22
2022-09-03T02:33:58.021Z,78.50
2022-09-03T02:36:41.153Z,78.48
2022-09-03T02:39:08.181Z,78.37
2022-09-03T02:41:35.284Z,78.10
2022-09-03T02:44:17.464Z,77.96
2022-09-03T02:46:55.839Z,78.26
2022-09-03T02:49:22.725Z,78.59
2022-09-03T02:51:49.764Z,79.07
2022-09-03T02:54:20.915Z,79.45
2022-09-03T02:56:49.948Z,79.37
2022-09-03T02:59:18.147Z,79.34
2022-09-03T03:01:46.435Z,79.37
2022-09-03T03:04:14.031Z,79.63
2022-09-03T03:06:40.820Z,80.01
2022-09-03T03:09:08.759Z,80.10
2022-09-03T03:11:37.228Z,80.52
2022-09-03T03:14:04.163Z,80.24
2022-09-03T03:16:30.926Z,80.06
2022-09-03T03:18:58.543Z,80.05
2022-09-03T03:21:25.384Z,80.02
2022-09-03T03:23:52.243Z,80.17
2022-09-03T03:26:21.566Z,80.11
2022-09-03T03:28:49.486Z,80.77
2022-09-03T03:31:21.538Z,80.84
2022-09-03T03:33:59.593Z,80.75
2022-09-03T03:36:29.807Z,80.94
2022-09-03T03:38:58.729Z,80.46
2022-09-03T03:41:34.294Z,80.66
2022-09-03T03:44:03.825Z,80.44
2022-09-03T03:46:50.934Z,81.57
2022-09-03T03:49:21.062Z,81.39
2022-09-03T03:51:48.163Z,81.61
2022-09-03T03:54:17.562Z,81.29
2022-09-03T03:56:44.653Z,81.67
2022-09-03T03:59:17.669Z,81.57
2022-09-03T04:01:44.588Z,81.59
2022-09-03T04:04:11.495Z,82.38
2022-09-03T04:06:38.270Z,82.12
2022-09-03T04:09:05.081Z,81.86
2022-09-03T04:11:32.104Z,82.00
2022-09-03T04:13:58.839Z,81.90
2022-09-03T04:16:29.265Z,81.90
2022-09-03T04:18:57.069Z,82.02
2022-09-03T04:21:28.890Z,81.72
2022-09-03T04:23:56.499Z,82.45
2022-09-03T04:26:26.292Z,82.22
2022-09-03T04:28:53.223Z,82.30
2022-09-03T04:31:21.073Z,81.91
2022-09-03T04:33:48.090Z,82.32
2022-09-03T04:36:17.390Z,82.04
2022-09-03T04:38:46.913Z,82.49
2022-09-03T04:41:24.967Z,83.58
2022-09-03T04:43:53.211Z,82.80
2022-09-03T04:46:21.662Z,82.97
2022-09-03T04:48:52.996Z,82.98
2022-09-03T04:51:25.265Z,82.66
2022-09-03T04:53:57.310Z,82.81
2022-09-03T04:56:27.368Z,83.18
2022-09-03T04:58:57.263Z,83.53
2022-09-03T05:01:27.152Z,83.41
2022-09-03T05:03:55.795Z,83.06
2022-09-03T05:06:22.768Z,83.05
2022-09-03T05:08:50.878Z,82.86
2022-09-03T05:11:18.214Z,83.53
2022-09-03T05:13:49.227Z,83.91
2022-09-03T05:16:17.360Z,84.00
2022-09-03T05:18:45.217Z,84.03
2022-09-03T05:21:14.924Z,84.20
2022-09-03T05:23:44.420Z,84.14
2022-09-03T05:26:15.595Z,84.01
2022-09-03T05:28:43.293Z,83.83
2022-09-03T05:31:12.811Z,84.32
2022-09-03T05:33:45.035Z,84.23
2022-09-03T05:36:14.545Z,85.27
2022-09-03T05:38:41.341Z,84.82
2022-09-03T05:41:10.891Z,85.21
2022-09-03T05:43:38.164Z,85.26
2022-09-03T05:46:14.316Z,85.38
2022-09-03T05:48:41.684Z,85.37
2022-09-03T05:51:16.533Z,85.97
2022-09-03T05:53:46.378Z,85.77
2022-09-03T05:56:18.001Z,85.62
2022-09-03T05:58:47.903Z,85.72
2022-09-03T06:01:20.185Z,85.68
2022-09-03T06:03:49.110Z,85.62
2022-09-03T06:06:16.180Z,85.60
2022-09-03T06:08:45.048Z,85.80
2022-09-03T06:11:12.056Z,86.36
2022-09-03T06:13:38.814Z,86.85
2022-09-03T06:16:07.786Z,86.51
2022-09-03T06:18:34.765Z,86.13
2022-09-03T06:21:06.710Z,86.52
2022-09-03T06:23:36.279Z,86.52
2022-09-03T06:26:13.552Z,86.95
2022-09-03T06:28:43.633Z,86.91
2022-09-03T06:31:15.759Z,87.90
2022-09-03T06:33:43.276Z,87.21
2022-09-03T06:36:13.576Z,86.92
2022-09-03T06:38:40.772Z,86.81
2022-09-03T06:41:21.419Z,86.78
2022-09-03T06:43:49.381Z,86.70
2022-09-03T06:46:19.203Z,86.93
2022-09-03T06:48:47.470Z,86.50
2022-09-03T06:51:19.435Z,86.89
2022-09-03T06:53:52.522Z,86.94
2022-09-03T06:56:29.207Z,86.14
2022-09-03T06:59:32.207Z,86.32
2022-09-03T07:02:01.060Z,85.99
2022-09-03T07:04:27.959Z,85.75
2022-09-03T07:06:55.994Z,86.17
2022-09-03T07:09:22.868Z,86.16
2022-09-03T07:11:49.968Z,85.92
2022-09-03T07:14:20.493Z,86.31
2022-09-03T07:16:49.393Z,86.17
2022-09-03T07:19:16.661Z,86.25
2022-09-03T07:21:48.848Z,85.94
2022-09-03T07:24:17.019Z,85.51
2022-09-03T07:26:48.922Z,85.61
2022-09-03T07:29:20.662Z,85.45
2022-09-03T07:31:51.949Z,85.22
2022-09-03T07:34:19.848Z,85.17
2022-09-03T07:36:50.158Z,85.34
2022-09-03T07:39:18.406Z,84.57
2022-09-03T07:41:46.925Z,84.09
2022-09-03T07:44:16.432Z,83.68
2022-09-03T07:46:45.705Z,83.06
2022-09-03T07:49:12.607Z,82.96
2022-09-03T07:51:40.024Z,82.84
2022-09-03T07:54:10.174Z,82.19
2022-09-03T07:56:38.445Z,81.83
2022-09-03T07:59:06.272Z,81.44
2022-09-03T08:01:34.344Z,82.01
2022-09-03T08:04:02.310Z,82.26
2022-09-03T08:06:30.828Z,81.70
2022-09-03T08:09:05.094Z,81.19
2022-09-03T08:11:36.724Z,80.37
2022-09-03T08:14:08.924Z,80.19
2022-09-03T08:16:38.556Z,79.11
2022-09-03T08:19:05.785Z,78.84
2022-09-03T08:21:32.653Z,78.84
2022-09-03T08:24:06.907Z,78.20
2022-09-03T08:26:35.846Z,77.28
2022-09-03T08:29:03.865Z,76.70
2022-09-03T08:31:32.595Z,76.43
2022-09-03T08:34:07.037Z,76.62
2022-09-03T08:36:36.620Z,76.46
2022-09-03T08:39:12.367Z,77.32
2022-09-03T08:41:51.278Z,76.78
2022-09-03T08:44:33.447Z,75.67
2022-09-03T08:47:14.765Z,75.82
2022-09-03T08:49:55.652Z,75.44
2022-09-03T08:52:32.679Z,75.29
2022-09-03T08:55:20.678Z,75.60
2022-09-03T08:57:50.703Z,76.84
2022-09-03T09:00:19.302Z,76.06
2022-09-03T09:02:56.837Z,75.77
2022-09-03T09:05:36.677Z,75.27
2022-09-03T09:08:18.215Z,75.23
2022-09-03T09:10:49.376Z,75.92
2022-09-03T09:13:38.741Z,74.97
2022-09-03T09:16:15.831Z,74.37
2022-09-03T09:19:05.668Z,74.57
2022-09-03T09:21:46.357Z,74.56
2022-09-03T09:24:26.783Z,74.68
2022-09-03T09:26:59.500Z,74.36
2022-09-03T09:29:29.605Z,74.07
2022-09-03T09:31:57.151Z,73.96
2022-09-03T09:34:24.269Z,72.79
2022-09-03T09:36:53.414Z,73.72
2022-09-03T09:39:21.093Z,72.81
2022-09-03T09:42:08.471Z,72.50
2022-09-03T09:44:41.697Z,71.81
2022-09-03T09:47:12.154Z,71.37
2022-09-03T09:49:53.539Z,71.42
2022-09-03T09:52:25.911Z,71.72
2022-09-03T09:54:55.167Z,72.07
2022-09-03T09:57:25.431Z,72.10
2022-09-03T10:00:12.982Z,71.31
2022-09-03T10:02:47.509Z,71.00
2022-09-03T10:05:28.197Z,71.25
2022-09-03T10:08:00.987Z,71.04
2022-09-03T10:10:35.213Z,70.90
2022-09-03T10:13:11.400Z,70.86
2022-09-03T10:16:14.480Z,71.21
2022-09-03T10:18:44.001Z,71.23
2022-09-03T10:21:47.775Z,70.94
2022-09-03T10:24:25.536Z,71.57
2022-09-03T10:27:08.547Z,71.87
2022-09-03T10:30:01.020Z,71.56
2022-09-03T10:32:47.781Z,71.71
2022-09-03T10:35:29.555Z,70.69
2022-09-03T10:38:18.142Z,70.14
2022-09-03T10:41:05.896Z,69.38
2022-09-03T10:44:01.675Z,68.98
2022-09-03T10:46:57.710Z,69.38
2022-09-03T10:49:46.315Z,69.45
2022-09-03T10:52:27.126Z,69.12
2022-09-03T10:55:12.550Z,69.17
2022-09-03T10:57:57.767Z,69.03
2022-09-03T11:00:26.323Z,69.12
2022-09-03T11:03:21.364Z,70.00
2022-09-03T11:06:12.439Z,68.47
2022-09-03T11:08:44.871Z,68.14
2022-09-03T11:11:20.370Z,67.35
2022-09-03T11:13:52.000Z,66.44
2022-09-03T11:16:26.006Z,66.38
2022-09-03T11:19:02.830Z,66.70
2022-09-03T11:21:32.177Z,66.46
2022-09-03T11:24:13.762Z,66.17
2022-09-03T11:26:45.002Z,65.79
2022-09-03T11:29:25.635Z,65.66
2022-09-03T11:32:21.976Z,65.59
2022-09-03T11:34:54.829Z,65.47
2022-09-03T11:37:26.751Z,65.12
2022-09-03T11:40:04.749Z,64.49
2022-09-03T11:42:41.782Z,64.23
2022-09-03T11:45:26.933Z,64.61
2022-09-03T11:47:54.475Z,65.10
2022-09-03T11:50:26.936Z,65.13
2022-09-03T11:53:25.490Z,64.98
2022-09-03T11:55:55.625Z,65.21
2022-09-03T11:58:34.795Z,65.33
2022-09-03T12:01:04.557Z,65.65
2022-09-03T12:03:49.292Z,65.64
2022-09-03T12:06:38.445Z,64.51
2022-09-03T12:09:28.793Z,64.72
2022-09-03T12:12:19.654Z,63.82
2022-09-03T12:15:16.719Z,64.12
2022-09-03T12:18:20.562Z,63.24
2022-09-03T12:20:54.161Z,62.89
2022-09-03T12:23:51.923Z,63.17
2022-09-03T12:26:27.678Z,62.60
2022-09-03T12:28:59.834Z,63.07
2022-09-03T12:31:30.369Z,63.33
2022-09-03T12:34:01.243Z,64.21
2022-09-03T12:36:42.941Z,64.20
2022-09-03T12:42:20.903Z,63.37
2022-09-03T12:44:47.823Z,63.77
2022-09-03T12:47:37.400Z,63.62
2022-09-03T12:50:17.023Z,63.57
2022-09-03T12:53:00.099Z,63.78
2022-09-03T12:55:42.551Z,64.38
2022-09-03T12:58:15.604Z,64.32
2022-09-03T13:00:57.414Z,64.55
2022-09-03T13:03:38.914Z,66.44
2022-09-03T13:06:11.483Z,67.95
2022-09-03T13:08:53.745Z,69.68
2022-09-03T13:11:25.307Z,69.92
2022-09-03T13:13:57.176Z,70.55
2022-09-03T13:16:39.296Z,70.85
2022-09-03T13:19:16.622Z,71.40
2022-09-03T13:21:49.098Z,71.88
2022-09-03T13:24:21.898Z,72.44
2022-09-03T13:27:10.594Z,72.15
2022-09-03T13:30:06.032Z,72.24
2022-09-03T13:32:38.379Z,72.21
2022-09-03T13:35:40.335Z,72.34
2022-09-03T13:38:09.939Z,73.15
2022-09-03T13:40:46.888Z,72.99
2022-09-03T13:43:36.576Z,73.02
2022-09-03T13:46:08.858Z,72.70
2022-09-03T13:49:04.518Z,72.34
2022-09-03T13:51:43.957Z,71.16
2022-09-03T13:54:49.540Z,71.04
2022-09-03T13:57:22.720Z,71.53
2022-09-03T14:00:00.353Z,70.17
2022-09-03T14:02:29.061Z,68.84
2022-09-03T14:05:04.370Z,67.60
2022-09-03T14:08:08.638Z,67.86
2022-09-03T14:10:38.440Z,67.85
2022-09-03T14:13:18.106Z,68.04
2022-09-03T14:16:20.057Z,68.67
2022-09-03T14:18:59.837Z,67.11
2022-09-03T14:21:33.604Z,68.24
2022-09-03T14:24:12.391Z,67.19
2022-09-03T14:26:52.237Z,67.69
2022-09-03T14:29:24.918Z,67.35
2022-09-03T14:32:03.886Z,66.86
2022-09-03T14:34:35.706Z,65.39
2022-09-03T14:37:28.892Z,65.22
2022-09-03T14:40:02.146Z,65.64
2022-09-03T14:42:47.314Z,65.52
2022-09-03T14:45:47.697Z,64.61
2022-09-03T14:48:51.966Z,64.01
2022-09-03T14:51:56.214Z,63.68
2022-09-03T14:55:10.573Z,63.07
2022-09-03T14:58:18.345Z,62.25
2022-09-03T15:01:01.812Z,62.57
2022-09-03T15:03:50.597Z,62.85
2022-09-03T15:06:32.425Z,63.23
2022-09-03T15:09:19.187Z,63.31
2022-09-03T15:12:08.319Z,63.11
2022-09-03T15:14:54.464Z,62.33
2022-09-03T15:17:49.275Z,61.99
2022-09-03T15:20:31.599Z,62.31
2022-09-03T15:23:13.505Z,61.78
2022-09-03T15:26:24.945Z,61.95
2022-09-03T15:29:11.634Z,62.08
2022-09-03T15:31:44.870Z,61.68
2022-09-03T15:34:14.528Z,62.27
2022-09-03T15:36:49.781Z,61.93
2022-09-03T15:39:27.040Z,61.81
2022-09-03T15:41:59.282Z,61.79
2022-09-03T15:44:31.764Z,62.59
2022-09-03T15:47:12.196Z,62.56
2022-09-03T15:50:05.341Z,62.47
2022-09-03T15:52:47.338Z,62.90
2022-09-03T15:55:39.435Z,63.07
2022-09-03T15:58:19.018Z,63.22
2022-09-03T16:01:03.302Z,65.96
2022-09-03T16:03:46.464Z,65.08
2022-09-03T16:06:48.104Z,64.27
2022-09-03T16:10:22.827Z,64.68
2022-09-03T16:13:16.789Z,65.05
2022-09-03T16:16:21.812Z,66.04
2022-09-03T16:19:32.211Z,64.49
2022-09-03T16:22:01.137Z,64.16
2022-09-03T16:25:13.463Z,64.49
2022-09-03T16:28:16.000Z,64.42
2022-09-03T16:31:36.559Z,64.70
2022-09-03T16:34:56.472Z,64.64
2022-09-03T16:38:09.440Z,64.46
2022-09-03T16:41:19.230Z,64.23
2022-09-03T16:44:27.204Z,64.73
2022-09-03T16:47:55.781Z,66.92
2022-09-03T16:51:19.605Z,65.64
2022-09-03T16:54:33.274Z,65.18
2022-09-03T16:57:26.847Z,65.37
2022-09-03T17:00:29.670Z,65.58
2022-09-03T17:03:32.039Z,66.25
2022-09-03T17:06:38.050Z,66.40
2022-09-03T17:09:14.477Z,66.15
2022-09-03T17:12:06.810Z,65.94
2022-09-03T17:14:46.839Z,65.65
2022-09-03T17:17:47.715Z,66.16
2022-09-03T17:20:48.545Z,66.46
2022-09-03T17:23:44.073Z,66.56
2022-09-03T17:26:21.384Z,65.67
2022-09-03T17:29:16.629Z,66.01
2022-09-03T17:31:51.842Z,66.05
2022-09-03T17:34:36.447Z,67.22
2022-09-03T17:37:33.575Z,68.14
2022-09-03T17:40:28.266Z,67.69
2022-09-03T17:43:10.306Z,67.17
2022-09-03T17:45:57.350Z,66.57
2022-09-03T17:48:52.470Z,67.06
2022-09-03T17:51:22.207Z,67.61
2022-09-03T17:54:07.711Z,67.13
2022-09-03T17:56:46.022Z,67.37
2022-09-03T17:59:22.430Z,66.62
2022-09-03T18:01:59.217Z,67.05
2022-09-03T18:04:47.096Z,66.52
2022-09-03T18:07:25.656Z,67.45
2022-09-03T18:10:02.335Z,67.93
2022-09-03T18:12:59.842Z,67.51
2022-09-03T18:15:39.619Z,70.27
2022-09-03T18:18:13.064Z,70.65
2022-09-03T18:21:23.986Z,69.40
2022-09-03T18:24:26.426Z,69.24
2022-09-03T18:27:18.458Z,68.99
2022-09-03T18:30:21.361Z,68.88
2022-09-03T18:33:07.229Z,68.37
2022-09-03T18:35:53.495Z,69.51
2022-09-03T18:38:47.703Z,68.76
2022-09-03T18:41:51.762Z,68.97
2022-09-03T18:44:48.333Z,69.25
2022-09-03T18:48:02.093Z,69.78
2022-09-03T18:51:06.575Z,70.82
2022-09-03T18:54:11.246Z,69.89
2022-09-03T18:57:05.897Z,69.84
2022-09-03T19:00:15.980Z,69.50
2022-09-03T19:03:19.506Z,69.47
2022-09-03T19:06:34.031Z,69.33
2022-09-03T19:09:38.685Z,70.55
2022-09-03T19:12:50.087Z,69.53
2022-09-03T19:15:48.253Z,69.04
2022-09-03T19:18:54.474Z,69.46
2022-09-03T19:22:07.533Z,69.56
2022-09-03T19:24:53.159Z,69.44
2022-09-03T19:27:55.592Z,68.76
2022-09-03T19:31:19.171Z,68.55
2022-09-03T19:34:23.444Z,69.31
2022-09-03T19:37:31.939Z,68.81
2022-09-03T19:40:43.468Z,70.02
2022-09-03T19:43:36.209Z,68.94
2022-09-03T19:46:49.257Z,70.64
2022-09-03T19:50:11.862Z,68.15
2022-09-03T19:53:12.337Z,67.69
2022-09-03T19:56:07.158Z,67.46
2022-09-03T19:58:57.738Z,66.64
2022-09-03T20:01:48.493Z,67.34
2022-09-03T20:04:34.704Z,68.54
2022-09-03T20:07:23.768Z,66.98
2022-09-03T20:10:12.847Z,66.67
2022-09-03T20:12:45.688Z,67.51
2022-09-03T20:15:12.540Z,67.81
2022-09-03T20:18:07.032Z,69.09
2022-09-03T20:20:59.901Z,68.35
2022-09-03T20:23:46.974Z,67.20
2022-09-03T20:26:33.312Z,66.47
2022-09-03T20:29:32.657Z,66.45
2022-09-03T20:32:05.334Z,67.66
2022-09-03T20:34:47.287Z,66.69
2022-09-03T20:37:27.799Z,67.14
2022-09-03T20:40:12.527Z,66.73
2022-09-03T20:42:51.195Z,66.30
2022-09-03T20:45:42.406Z,66.19
2022-09-03T20:48:22.946Z,66.59
2022-09-03T20:51:12.422Z,67.42
2022-09-03T20:53:55.086Z,67.26
2022-09-03T20:56:33.983Z,67.60
2022-09-03T20:59:12.008Z,66.84
2022-09-03T21:01:53.768Z,66.97
2022-09-03T21:04:39.862Z,66.23
2022-09-03T21:07:28.508Z,66.31
2022-09-03T21:10:06.669Z,66.18
2022-09-03T21:12:57.807Z,65.99
2022-09-03T21:15:24.636Z,66.51
2022-09-03T21:18:31.370Z,66.75
2022-09-03T21:21:09.940Z,67.07
2022-09-03T21:24:06.810Z,67.13
2022-09-03T21:26:42.085Z,67.71
2022-09-03T21:29:22.181Z,67.67
2022-09-03T21:32:07.861Z,67.74
2022-09-03T21:34:42.358Z,68.09
2022-09-03T21:37:12.883Z,67.97
2022-09-03T21:39:49.631Z,67.41
2022-09-03T21:42:31.667Z,67.93
2022-09-03T21:45:08.650Z,67.69
2022-09-03T21:47:45.127Z,68.69
2022-09-03T21:50:18.988Z,68.39
2022-09-03T21:53:03.257Z,68.54
2022-09-03T21:55:32.750Z,69.28
2022-09-03T21:58:35.949Z,69.06
2022-09-03T22:01:10.837Z,68.62
2022-09-03T22:03:37.655Z,68.99
2022-09-03T22:06:13.952Z,68.50
2022-09-03T22:08:42.226Z,68.24
2022-09-03T22:11:39.905Z,69.90
2022-09-03T22:14:18.051Z,69.40
2022-09-03T22:17:03.019Z,68.92
2022-09-03T22:19:37.552Z,69.29
2022-09-03T22:22:12.931Z,69.32
2022-09-03T22:24:49.906Z,68.58
2022-09-03T22:27:22.674Z,68.95
2022-09-03T22:30:11.499Z,69.88
2022-09-03T22:32:57.310Z,69.55
2022-09-03T22:35:46.678Z,69.04
2022-09-03T22:38:39.323Z,69.17
2022-09-03T22:41:21.251Z,70.18
2022-09-03T22:44:12.667Z,69.55
2022-09-03T22:47:11.739Z,70.05
2022-09-03T22:50:03.800Z,70.15
2022-09-03T22:52:41.313Z,70.58
2022-09-03T22:55:26.891Z,70.81
2022-09-03T22:58:25.313Z,71.04
2022-09-03T23:01:15.155Z,71.25
2022-09-03T23:03:49.649Z,71.45
2022-09-03T23:06:32.650Z,71.92
2022-09-03T23:09:04.578Z,71.85
2022-09-03T23:11:38.721Z,71.88
2022-09-03T23:14:08.413Z,72.35
2022-09-03T23:17:06.248Z,72.27
2022-09-03T23:19:41.140Z,72.89
2022-09-03T23:22:13.801Z,72.77
2022-09-03T23:24:43.862Z,72.17
2022-09-03T23:27:18.457Z,71.85
2022-09-03T23:29:50.528Z,72.13
2022-09-03T23:32:17.346Z,72.28
2022-09-03T23:34:44.179Z,72.36
2022-09-03T23:37:35.309Z,72.68
2022-09-03T23:40:30.530Z,72.63
2022-09-03T23:43:09.331Z,72.52
2022-09-03T23:46:00.985Z,72.47
2022-09-03T23:48:37.917Z,72.78
2022-09-03T23:51:28.444Z,72.62
2022-09-03T23:54:25.943Z,72.47
2022-09-03T23:57:01.030Z,72.70
2022-09-03T23:59:33.822Z,72.51
